sensor_id;sensor_type;location;lat;lon;timestamp;P1;durP1;ratioP1;P2;durP2;ratioP2
23567;SDS011;11962;50.838;4.430;2022-11-25T00:00:50;13.82;;;2.50;;
23567;SDS011;11962;50.838;4.430;2022-11-25T00:03:16;14.48;;;2.85;;
23567;SDS011;11962;50.838;4.430;2022-11-25T00:05:42;16.48;;;3.20;;
23567;SDS011;11962;50.838;4.430;2022-11-25T00:08:08;13.23;;;2.83;;
23567;SDS011;11962;50.838;4.430;2022-11-25T00:10:34;17.15;;;3.25;;
23567;SDS011;11962;50.838;4.430;2022-11-25T00:12:59;13.10;;;2.70;;
23567;SDS011;11962;50.838;4.430;2022-11-25T00:15:25;16.77;;;2.83;;
23567;SDS011;11962;50.838;4.430;2022-11-25T00:17:51;16.00;;;2.83;;
23567;SDS011;11962;50.838;4.430;2022-11-25T00:20:16;13.68;;;2.75;;
23567;SDS011;11962;50.838;4.430;2022-11-25T00:22:45;15.23;;;2.78;;
23567;SDS011;11962;50.838;4.430;2022-11-25T00:25:11;13.05;;;2.85;;
23567;SDS011;11962;50.838;4.430;2022-11-25T00:27:39;17.02;;;2.78;;
23567;SDS011;11962;50.838;4.430;2022-11-25T00:30:05;13.23;;;2.60;;
23567;SDS011;11962;50.838;4.430;2022-11-25T00:32:31;21.58;;;3.58;;
23567;SDS011;11962;50.838;4.430;2022-11-25T00:34:57;12.48;;;2.90;;
23567;SDS011;11962;50.838;4.430;2022-11-25T00:37:22;15.73;;;3.30;;
23567;SDS011;11962;50.838;4.430;2022-11-25T00:39:49;17.90;;;3.80;;
23567;SDS011;11962;50.838;4.430;2022-11-25T00:42:15;23.50;;;3.33;;
23567;SDS011;11962;50.838;4.430;2022-11-25T00:44:59;13.75;;;2.63;;
23567;SDS011;11962;50.838;4.430;2022-11-25T00:47:25;16.75;;;2.65;;
23567;SDS011;11962;50.838;4.430;2022-11-25T00:49:51;18.75;;;3.20;;
23567;SDS011;11962;50.838;4.430;2022-11-25T00:52:19;11.10;;;2.17;;
23567;SDS011;11962;50.838;4.430;2022-11-25T00:54:49;7.85;;;1.38;;
23567;SDS011;11962;50.838;4.430;2022-11-25T00:57:17;11.25;;;1.85;;
23567;SDS011;11962;50.838;4.430;2022-11-25T00:59:44;8.02;;;1.73;;
23567;SDS011;11962;50.838;4.430;2022-11-25T01:02:10;4.40;;;1.35;;
23567;SDS011;11962;50.838;4.430;2022-11-25T01:04:37;3.13;;;0.90;;
23567;SDS011;11962;50.838;4.430;2022-11-25T01:07:03;5.07;;;1.10;;
23567;SDS011;11962;50.838;4.430;2022-11-25T01:09:29;4.32;;;1.10;;
23567;SDS011;11962;50.838;4.430;2022-11-25T01:11:55;3.95;;;1.00;;
23567;SDS011;11962;50.838;4.430;2022-11-25T01:14:21;5.72;;;1.10;;
23567;SDS011;11962;50.838;4.430;2022-11-25T01:16:47;4.43;;;1.17;;
23567;SDS011;11962;50.838;4.430;2022-11-25T01:19:13;3.08;;;0.80;;
23567;SDS011;11962;50.838;4.430;2022-11-25T01:21:40;4.85;;;1.33;;
23567;SDS011;11962;50.838;4.430;2022-11-25T01:24:06;4.22;;;1.13;;
23567;SDS011;11962;50.838;4.430;2022-11-25T01:26:32;7.90;;;0.80;;
23567;SDS011;11962;50.838;4.430;2022-11-25T01:29:00;5.57;;;0.90;;
23567;SDS011;11962;50.838;4.430;2022-11-25T01:31:28;3.95;;;1.05;;
23567;SDS011;11962;50.838;4.430;2022-11-25T01:33:58;2.08;;;0.80;;
23567;SDS011;11962;50.838;4.430;2022-11-25T01:36:26;5.43;;;1.20;;
23567;SDS011;11962;50.838;4.430;2022-11-25T01:38:53;6.57;;;1.05;;
23567;SDS011;11962;50.838;4.430;2022-11-25T01:48:11;3.53;;;1.13;;
23567;SDS011;11962;50.838;4.430;2022-11-25T01:50:42;5.38;;;0.90;;
23567;SDS011;11962;50.838;4.430;2022-11-25T01:53:09;4.43;;;1.00;;
23567;SDS011;11962;50.838;4.430;2022-11-25T01:55:42;4.50;;;1.00;;
23567;SDS011;11962;50.838;4.430;2022-11-25T01:58:19;7.13;;;1.10;;
23567;SDS011;11962;50.838;4.430;2022-11-25T02:00:48;4.38;;;0.70;;
23567;SDS011;11962;50.838;4.430;2022-11-25T02:03:21;2.05;;;0.68;;
23567;SDS011;11962;50.838;4.430;2022-11-25T02:05:51;4.57;;;1.08;;
23567;SDS011;11962;50.838;4.430;2022-11-25T02:08:20;3.55;;;0.70;;
23567;SDS011;11962;50.838;4.430;2022-11-25T02:13:33;2.97;;;0.68;;
23567;SDS011;11962;50.838;4.430;2022-11-25T02:16:00;2.20;;;0.70;;
23567;SDS011;11962;50.838;4.430;2022-11-25T02:18:26;2.10;;;0.68;;
23567;SDS011;11962;50.838;4.430;2022-11-25T02:20:53;5.88;;;1.13;;
23567;SDS011;11962;50.838;4.430;2022-11-25T02:25:59;3.70;;;1.20;;
23567;SDS011;11962;50.838;4.430;2022-11-25T02:28:26;3.50;;;0.93;;
23567;SDS011;11962;50.838;4.430;2022-11-25T02:30:55;5.78;;;1.02;;
23567;SDS011;11962;50.838;4.430;2022-11-25T02:33:21;4.75;;;1.85;;
23567;SDS011;11962;50.838;4.430;2022-11-25T02:38:44;4.68;;;1.40;;
23567;SDS011;11962;50.838;4.430;2022-11-25T02:41:17;4.07;;;1.00;;
23567;SDS011;11962;50.838;4.430;2022-11-25T02:43:51;4.30;;;1.40;;
23567;SDS011;11962;50.838;4.430;2022-11-25T02:46:18;2.13;;;0.80;;
23567;SDS011;11962;50.838;4.430;2022-11-25T02:51:14;2.55;;;0.88;;
23567;SDS011;11962;50.838;4.430;2022-11-25T02:53:41;4.60;;;1.05;;
23567;SDS011;11962;50.838;4.430;2022-11-25T02:56:07;2.60;;;0.90;;
23567;SDS011;11962;50.838;4.430;2022-11-25T02:58:34;3.20;;;0.90;;
23567;SDS011;11962;50.838;4.430;2022-11-25T03:01:00;4.40;;;1.10;;
23567;SDS011;11962;50.838;4.430;2022-11-25T03:03:25;3.35;;;1.20;;
23567;SDS011;11962;50.838;4.430;2022-11-25T03:05:51;2.97;;;1.10;;
23567;SDS011;11962;50.838;4.430;2022-11-25T03:08:17;3.00;;;0.80;;
23567;SDS011;11962;50.838;4.430;2022-11-25T03:10:42;3.08;;;1.08;;
23567;SDS011;11962;50.838;4.430;2022-11-25T03:13:27;2.78;;;1.00;;
23567;SDS011;11962;50.838;4.430;2022-11-25T03:15:52;4.22;;;1.00;;
23567;SDS011;11962;50.838;4.430;2022-11-25T03:18:18;4.20;;;1.00;;
23567;SDS011;11962;50.838;4.430;2022-11-25T03:20:44;3.67;;;1.00;;
23567;SDS011;11962;50.838;4.430;2022-11-25T03:23:09;3.90;;;1.30;;
23567;SDS011;11962;50.838;4.430;2022-11-25T03:25:35;5.82;;;1.40;;
23567;SDS011;11962;50.838;4.430;2022-11-25T03:28:01;6.13;;;1.45;;
23567;SDS011;11962;50.838;4.430;2022-11-25T03:30:27;8.27;;;1.35;;
23567;SDS011;11962;50.838;4.430;2022-11-25T03:32:53;5.60;;;1.83;;
23567;SDS011;11962;50.838;4.430;2022-11-25T03:35:19;8.95;;;1.58;;
23567;SDS011;11962;50.838;4.430;2022-11-25T03:37:45;7.88;;;1.73;;
23567;SDS011;11962;50.838;4.430;2022-11-25T03:40:11;7.78;;;1.63;;
23567;SDS011;11962;50.838;4.430;2022-11-25T03:42:50;8.48;;;2.17;;
23567;SDS011;11962;50.838;4.430;2022-11-25T03:45:16;12.70;;;1.73;;
23567;SDS011;11962;50.838;4.430;2022-11-25T03:47:42;6.78;;;1.63;;
23567;SDS011;11962;50.838;4.430;2022-11-25T03:50:09;7.78;;;1.75;;
23567;SDS011;11962;50.838;4.430;2022-11-25T03:52:36;9.30;;;2.40;;
23567;SDS011;11962;50.838;4.430;2022-11-25T03:55:05;11.40;;;2.22;;
23567;SDS011;11962;50.838;4.430;2022-11-25T03:57:32;10.68;;;1.98;;
23567;SDS011;11962;50.838;4.430;2022-11-25T03:59:57;8.82;;;2.10;;
23567;SDS011;11962;50.838;4.430;2022-11-25T04:02:23;10.35;;;2.80;;
23567;SDS011;11962;50.838;4.430;2022-11-25T04:04:49;7.93;;;2.00;;
23567;SDS011;11962;50.838;4.430;2022-11-25T04:07:14;6.40;;;1.80;;
23567;SDS011;11962;50.838;4.430;2022-11-25T04:09:40;10.90;;;2.90;;
23567;SDS011;11962;50.838;4.430;2022-11-25T04:12:06;12.82;;;2.13;;
23567;SDS011;11962;50.838;4.430;2022-11-25T04:14:50;7.70;;;2.03;;
23567;SDS011;11962;50.838;4.430;2022-11-25T04:17:15;7.85;;;1.85;;
23567;SDS011;11962;50.838;4.430;2022-11-25T04:19:41;7.82;;;2.30;;
23567;SDS011;11962;50.838;4.430;2022-11-25T04:22:07;12.65;;;2.38;;
23567;SDS011;11962;50.838;4.430;2022-11-25T04:24:32;7.07;;;2.10;;
23567;SDS011;11962;50.838;4.430;2022-11-25T04:26:58;7.20;;;1.88;;
23567;SDS011;11962;50.838;4.430;2022-11-25T04:29:23;8.85;;;2.05;;
23567;SDS011;11962;50.838;4.430;2022-11-25T04:31:49;9.82;;;2.67;;
23567;SDS011;11962;50.838;4.430;2022-11-25T04:34:15;11.18;;;2.22;;
23567;SDS011;11962;50.838;4.430;2022-11-25T04:36:40;14.25;;;2.40;;
23567;SDS011;11962;50.838;4.430;2022-11-25T04:39:06;13.73;;;2.40;;
23567;SDS011;11962;50.838;4.430;2022-11-25T04:41:32;8.65;;;2.08;;
23567;SDS011;11962;50.838;4.430;2022-11-25T04:44:00;8.77;;;2.03;;
23567;SDS011;11962;50.838;4.430;2022-11-25T04:46:28;13.15;;;2.63;;
23567;SDS011;11962;50.838;4.430;2022-11-25T04:49:00;11.75;;;2.45;;
23567;SDS011;11962;50.838;4.430;2022-11-25T04:51:25;8.15;;;1.88;;
23567;SDS011;11962;50.838;4.430;2022-11-25T04:53:51;11.07;;;2.40;;
23567;SDS011;11962;50.838;4.430;2022-11-25T04:56:17;11.38;;;2.00;;
23567;SDS011;11962;50.838;4.430;2022-11-25T05:01:48;9.45;;;2.10;;
23567;SDS011;11962;50.838;4.430;2022-11-25T05:04:14;11.80;;;2.22;;
23567;SDS011;11962;50.838;4.430;2022-11-25T05:06:40;16.25;;;2.85;;
23567;SDS011;11962;50.838;4.430;2022-11-25T05:09:05;10.13;;;2.40;;
23567;SDS011;11962;50.838;4.430;2022-11-25T05:11:31;9.50;;;2.85;;
23567;SDS011;11962;50.838;4.430;2022-11-25T05:13:56;8.40;;;1.92;;
23567;SDS011;11962;50.838;4.430;2022-11-25T05:16:22;7.28;;;2.28;;
23567;SDS011;11962;50.838;4.430;2022-11-25T05:18:48;11.02;;;2.00;;
23567;SDS011;11962;50.838;4.430;2022-11-25T05:21:13;6.47;;;1.88;;
23567;SDS011;11962;50.838;4.430;2022-11-25T05:23:39;5.78;;;1.95;;
23567;SDS011;11962;50.838;4.430;2022-11-25T05:26:05;11.57;;;2.13;;
23567;SDS011;11962;50.838;4.430;2022-11-25T05:28:33;9.40;;;1.90;;
23567;SDS011;11962;50.838;4.430;2022-11-25T05:30:59;9.73;;;2.20;;
23567;SDS011;11962;50.838;4.430;2022-11-25T05:33:27;9.85;;;2.05;;
23567;SDS011;11962;50.838;4.430;2022-11-25T05:35:57;10.45;;;2.22;;
23567;SDS011;11962;50.838;4.430;2022-11-25T05:38:25;11.30;;;2.83;;
23567;SDS011;11962;50.838;4.430;2022-11-25T05:40:51;6.60;;;1.77;;
23567;SDS011;11962;50.838;4.430;2022-11-25T05:43:17;12.77;;;1.95;;
23567;SDS011;11962;50.838;4.430;2022-11-25T05:45:43;8.50;;;2.00;;
23567;SDS011;11962;50.838;4.430;2022-11-25T05:48:09;10.93;;;2.15;;
23567;SDS011;11962;50.838;4.430;2022-11-25T05:50:35;9.32;;;1.77;;
23567;SDS011;11962;50.838;4.430;2022-11-25T05:53:02;12.73;;;2.15;;
23567;SDS011;11962;50.838;4.430;2022-11-25T05:55:28;13.60;;;2.17;;
23567;SDS011;11962;50.838;4.430;2022-11-25T05:57:53;7.70;;;1.95;;
23567;SDS011;11962;50.838;4.430;2022-11-25T06:00:19;11.85;;;2.63;;
23567;SDS011;11962;50.838;4.430;2022-11-25T06:02:48;8.30;;;2.40;;
23567;SDS011;11962;50.838;4.430;2022-11-25T06:05:14;10.60;;;2.42;;
23567;SDS011;11962;50.838;4.430;2022-11-25T06:07:40;6.15;;;2.05;;
23567;SDS011;11962;50.838;4.430;2022-11-25T06:10:06;8.35;;;2.20;;
23567;SDS011;11962;50.838;4.430;2022-11-25T06:12:32;10.18;;;2.28;;
23567;SDS011;11962;50.838;4.430;2022-11-25T06:14:58;7.90;;;2.05;;
23567;SDS011;11962;50.838;4.430;2022-11-25T06:17:23;11.23;;;2.30;;
23567;SDS011;11962;50.838;4.430;2022-11-25T06:19:49;10.02;;;2.53;;
23567;SDS011;11962;50.838;4.430;2022-11-25T06:22:15;10.90;;;2.20;;
23567;SDS011;11962;50.838;4.430;2022-11-25T06:24:40;9.40;;;2.05;;
23567;SDS011;11962;50.838;4.430;2022-11-25T06:27:06;14.43;;;2.60;;
23567;SDS011;11962;50.838;4.430;2022-11-25T06:29:42;9.63;;;2.20;;
23567;SDS011;11962;50.838;4.430;2022-11-25T06:32:08;15.35;;;2.92;;
23567;SDS011;11962;50.838;4.430;2022-11-25T06:34:34;21.40;;;3.42;;
23567;SDS011;11962;50.838;4.430;2022-11-25T06:37:00;31.08;;;3.72;;
23567;SDS011;11962;50.838;4.430;2022-11-25T06:39:26;25.70;;;3.22;;
23567;SDS011;11962;50.838;4.430;2022-11-25T06:41:52;10.77;;;2.70;;
23567;SDS011;11962;50.838;4.430;2022-11-25T06:44:18;10.63;;;2.42;;
23567;SDS011;11962;50.838;4.430;2022-11-25T06:46:45;11.35;;;2.85;;
23567;SDS011;11962;50.838;4.430;2022-11-25T06:49:10;14.65;;;3.42;;
23567;SDS011;11962;50.838;4.430;2022-11-25T06:51:36;19.30;;;3.75;;
23567;SDS011;11962;50.838;4.430;2022-11-25T06:54:02;13.60;;;3.10;;
23567;SDS011;11962;50.838;4.430;2022-11-25T06:56:28;15.15;;;3.78;;
23567;SDS011;11962;50.838;4.430;2022-11-25T07:01:41;9.85;;;2.85;;
23567;SDS011;11962;50.838;4.430;2022-11-25T07:04:07;10.07;;;2.90;;
23567;SDS011;11962;50.838;4.430;2022-11-25T07:06:33;10.73;;;2.50;;
23567;SDS011;11962;50.838;4.430;2022-11-25T07:08:59;15.18;;;3.38;;
23567;SDS011;11962;50.838;4.430;2022-11-25T07:11:26;11.07;;;2.75;;
23567;SDS011;11962;50.838;4.430;2022-11-25T07:13:54;9.25;;;2.78;;
23567;SDS011;11962;50.838;4.430;2022-11-25T07:16:23;12.68;;;2.97;;
23567;SDS011;11962;50.838;4.430;2022-11-25T07:18:49;11.65;;;3.15;;
23567;SDS011;11962;50.838;4.430;2022-11-25T07:21:18;15.23;;;3.08;;
23567;SDS011;11962;50.838;4.430;2022-11-25T07:23:46;13.88;;;2.88;;
23567;SDS011;11962;50.838;4.430;2022-11-25T07:26:13;16.58;;;3.40;;
23567;SDS011;11962;50.838;4.430;2022-11-25T07:28:46;16.77;;;2.80;;
23567;SDS011;11962;50.838;4.430;2022-11-25T07:33:50;12.98;;;3.25;;
23567;SDS011;11962;50.838;4.430;2022-11-25T07:36:17;13.82;;;3.13;;
23567;SDS011;11962;50.838;4.430;2022-11-25T07:38:44;12.50;;;2.88;;
23567;SDS011;11962;50.838;4.430;2022-11-25T07:41:14;16.38;;;2.97;;
23567;SDS011;11962;50.838;4.430;2022-11-25T07:43:45;14.73;;;2.97;;
23567;SDS011;11962;50.838;4.430;2022-11-25T07:46:32;17.88;;;3.03;;
23567;SDS011;11962;50.838;4.430;2022-11-25T07:49:00;16.15;;;3.55;;
23567;SDS011;11962;50.838;4.430;2022-11-25T07:51:32;15.65;;;3.05;;
23567;SDS011;11962;50.838;4.430;2022-11-25T07:54:03;14.65;;;3.53;;
23567;SDS011;11962;50.838;4.430;2022-11-25T07:56:30;15.88;;;3.40;;
23567;SDS011;11962;50.838;4.430;2022-11-25T07:58:58;14.05;;;3.38;;
23567;SDS011;11962;50.838;4.430;2022-11-25T08:01:24;16.00;;;3.33;;
23567;SDS011;11962;50.838;4.430;2022-11-25T08:03:50;14.82;;;3.58;;
23567;SDS011;11962;50.838;4.430;2022-11-25T08:06:23;15.75;;;3.15;;
23567;SDS011;11962;50.838;4.430;2022-11-25T08:08:50;18.92;;;3.00;;
23567;SDS011;11962;50.838;4.430;2022-11-25T08:11:26;14.90;;;3.60;;
23567;SDS011;11962;50.838;4.430;2022-11-25T08:13:53;13.18;;;3.40;;
23567;SDS011;11962;50.838;4.430;2022-11-25T08:19:24;11.55;;;2.60;;
23567;SDS011;11962;50.838;4.430;2022-11-25T08:21:50;18.38;;;3.10;;
23567;SDS011;11962;50.838;4.430;2022-11-25T08:24:16;15.05;;;3.33;;
23567;SDS011;11962;50.838;4.430;2022-11-25T08:26:44;12.07;;;3.05;;
23567;SDS011;11962;50.838;4.430;2022-11-25T08:29:17;14.13;;;2.78;;
23567;SDS011;11962;50.838;4.430;2022-11-25T08:31:43;16.05;;;3.42;;
23567;SDS011;11962;50.838;4.430;2022-11-25T08:34:14;18.77;;;3.70;;
23567;SDS011;11962;50.838;4.430;2022-11-25T08:36:44;14.73;;;3.78;;
23567;SDS011;11962;50.838;4.430;2022-11-25T08:39:11;15.90;;;3.40;;
23567;SDS011;11962;50.838;4.430;2022-11-25T08:41:37;12.30;;;3.95;;
23567;SDS011;11962;50.838;4.430;2022-11-25T08:44:03;14.38;;;3.33;;
23567;SDS011;11962;50.838;4.430;2022-11-25T08:46:33;13.43;;;3.83;;
23567;SDS011;11962;50.838;4.430;2022-11-25T08:49:02;13.98;;;3.20;;
23567;SDS011;11962;50.838;4.430;2022-11-25T08:51:30;14.57;;;3.30;;
23567;SDS011;11962;50.838;4.430;2022-11-25T08:53:57;14.60;;;3.55;;
23567;SDS011;11962;50.838;4.430;2022-11-25T08:56:24;14.88;;;3.85;;
23567;SDS011;11962;50.838;4.430;2022-11-25T08:58:50;14.50;;;3.80;;
23567;SDS011;11962;50.838;4.430;2022-11-25T09:01:31;18.38;;;3.95;;
23567;SDS011;11962;50.838;4.430;2022-11-25T09:03:57;9.55;;;3.22;;
23567;SDS011;11962;50.838;4.430;2022-11-25T09:06:24;12.77;;;3.75;;
23567;SDS011;11962;50.838;4.430;2022-11-25T09:08:53;14.40;;;3.80;;
23567;SDS011;11962;50.838;4.430;2022-11-25T09:11:19;15.07;;;2.80;;
23567;SDS011;11962;50.838;4.430;2022-11-25T09:13:45;16.38;;;3.38;;
23567;SDS011;11962;50.838;4.430;2022-11-25T09:16:22;7.25;;;2.42;;
23567;SDS011;11962;50.838;4.430;2022-11-25T09:18:48;10.90;;;2.33;;
23567;SDS011;11962;50.838;4.430;2022-11-25T09:21:15;8.43;;;2.42;;
23567;SDS011;11962;50.838;4.430;2022-11-25T09:23:41;13.27;;;2.65;;
23567;SDS011;11962;50.838;4.430;2022-11-25T09:26:07;7.60;;;2.45;;
23567;SDS011;11962;50.838;4.430;2022-11-25T09:28:47;8.18;;;1.98;;
23567;SDS011;11962;50.838;4.430;2022-11-25T09:31:15;11.88;;;2.63;;
23567;SDS011;11962;50.838;4.430;2022-11-25T09:33:41;9.37;;;2.23;;
23567;SDS011;11962;50.838;4.430;2022-11-25T09:36:07;10.82;;;2.42;;
23567;SDS011;11962;50.838;4.430;2022-11-25T09:38:34;10.90;;;1.75;;
23567;SDS011;11962;50.838;4.430;2022-11-25T09:41:06;6.18;;;2.20;;
23567;SDS011;11962;50.838;4.430;2022-11-25T09:50:09;7.57;;;2.30;;
23567;SDS011;11962;50.838;4.430;2022-11-25T09:55:32;7.57;;;2.10;;
23567;SDS011;11962;50.838;4.430;2022-11-25T09:58:18;8.68;;;2.08;;
23567;SDS011;11962;50.838;4.430;2022-11-25T10:00:51;7.25;;;2.20;;
23567;SDS011;11962;50.838;4.430;2022-11-25T10:05:58;8.95;;;2.20;;
23567;SDS011;11962;50.838;4.430;2022-11-25T10:08:45;6.93;;;1.55;;
23567;SDS011;11962;50.838;4.430;2022-11-25T10:16:29;7.47;;;1.90;;
23567;SDS011;11962;50.838;4.430;2022-11-25T10:21:52;4.85;;;1.38;;
23567;SDS011;11962;50.838;4.430;2022-11-25T10:24:18;4.50;;;1.50;;
23567;SDS011;11962;50.838;4.430;2022-11-25T10:26:48;4.57;;;1.50;;
23567;SDS011;11962;50.838;4.430;2022-11-25T10:29:23;4.95;;;1.17;;
23567;SDS011;11962;50.838;4.430;2022-11-25T10:31:53;5.43;;;1.50;;
23567;SDS011;11962;50.838;4.430;2022-11-25T10:34:36;6.07;;;1.77;;
23567;SDS011;11962;50.838;4.430;2022-11-25T10:37:10;6.32;;;1.60;;
23567;SDS011;11962;50.838;4.430;2022-11-25T10:39:41;6.80;;;1.40;;
23567;SDS011;11962;50.838;4.430;2022-11-25T10:42:14;4.03;;;1.25;;
23567;SDS011;11962;50.838;4.430;2022-11-25T10:44:44;4.20;;;1.33;;
23567;SDS011;11962;50.838;4.430;2022-11-25T10:50:15;5.25;;;1.42;;
23567;SDS011;11962;50.838;4.430;2022-11-25T10:53:07;6.82;;;1.90;;
23567;SDS011;11962;50.838;4.430;2022-11-25T10:55:34;7.50;;;1.80;;
23567;SDS011;11962;50.838;4.430;2022-11-25T11:01:16;5.78;;;1.70;;
23567;SDS011;11962;50.838;4.430;2022-11-25T11:03:53;8.57;;;2.28;;
23567;SDS011;11962;50.838;4.430;2022-11-25T11:06:46;8.68;;;1.92;;
23567;SDS011;11962;50.838;4.430;2022-11-25T11:12:06;7.43;;;1.63;;
23567;SDS011;11962;50.838;4.430;2022-11-25T11:14:46;5.63;;;1.80;;
23567;SDS011;11962;50.838;4.430;2022-11-25T11:17:31;7.30;;;2.08;;
23567;SDS011;11962;50.838;4.430;2022-11-25T11:22:30;8.32;;;2.15;;
23567;SDS011;11962;50.838;4.430;2022-11-25T11:25:08;12.25;;;2.17;;
23567;SDS011;11962;50.838;4.430;2022-11-25T11:27:43;6.10;;;1.98;;
23567;SDS011;11962;50.838;4.430;2022-11-25T11:30:14;11.60;;;2.38;;
23567;SDS011;11962;50.838;4.430;2022-11-25T11:33:26;14.40;;;2.42;;
23567;SDS011;11962;50.838;4.430;2022-11-25T11:36:09;9.45;;;1.92;;
23567;SDS011;11962;50.838;4.430;2022-11-25T11:38:54;10.40;;;2.53;;
23567;SDS011;11962;50.838;4.430;2022-11-25T11:41:35;12.65;;;2.60;;
23567;SDS011;11962;50.838;4.430;2022-11-25T11:55:58;8.60;;;2.67;;
23567;SDS011;11962;50.838;4.430;2022-11-25T12:04:25;9.32;;;2.25;;
23567;SDS011;11962;50.838;4.430;2022-11-25T12:06:59;13.13;;;2.72;;
23567;SDS011;11962;50.838;4.430;2022-11-25T12:09:27;10.38;;;2.80;;
23567;SDS011;11962;50.838;4.430;2022-11-25T12:11:57;11.40;;;2.75;;
23567;SDS011;11962;50.838;4.430;2022-11-25T12:17:02;9.23;;;2.22;;
23567;SDS011;11962;50.838;4.430;2022-11-25T12:19:43;14.07;;;2.65;;
23567;SDS011;11962;50.838;4.430;2022-11-25T12:22:24;15.48;;;3.03;;
23567;SDS011;11962;50.838;4.430;2022-11-25T12:25:07;8.90;;;2.53;;
23567;SDS011;11962;50.838;4.430;2022-11-25T12:27:45;11.88;;;2.88;;
23567;SDS011;11962;50.838;4.430;2022-11-25T12:30:19;11.82;;;3.20;;
23567;SDS011;11962;50.838;4.430;2022-11-25T12:38:46;13.77;;;2.90;;
23567;SDS011;11962;50.838;4.430;2022-11-25T12:41:40;12.20;;;2.78;;
23567;SDS011;11962;50.838;4.430;2022-11-25T12:44:20;11.40;;;2.75;;
23567;SDS011;11962;50.838;4.430;2022-11-25T12:47:08;11.23;;;3.00;;
23567;SDS011;11962;50.838;4.430;2022-11-25T12:49:39;14.27;;;3.85;;
23567;SDS011;11962;50.838;4.430;2022-11-25T12:55:05;17.67;;;3.00;;
23567;SDS011;11962;50.838;4.430;2022-11-25T13:00:24;13.38;;;3.17;;
23567;SDS011;11962;50.838;4.430;2022-11-25T13:16:26;15.93;;;3.13;;
23567;SDS011;11962;50.838;4.430;2022-11-25T13:18:52;16.88;;;3.10;;
23567;SDS011;11962;50.838;4.430;2022-11-25T13:21:20;13.70;;;3.00;;
23567;SDS011;11962;50.838;4.430;2022-11-25T13:28:56;14.88;;;3.33;;
23567;SDS011;11962;50.838;4.430;2022-11-25T13:36:56;15.43;;;2.95;;
23567;SDS011;11962;50.838;4.430;2022-11-25T13:42:00;14.82;;;3.30;;
23567;SDS011;11962;50.838;4.430;2022-11-25T13:44:33;13.98;;;3.15;;
23567;SDS011;11962;50.838;4.430;2022-11-25T13:50:32;17.33;;;3.20;;
23567;SDS011;11962;50.838;4.430;2022-11-25T13:53:05;24.25;;;4.20;;
23567;SDS011;11962;50.838;4.430;2022-11-25T13:55:50;17.60;;;3.10;;
23567;SDS011;11962;50.838;4.430;2022-11-25T14:08:41;17.33;;;3.30;;
23567;SDS011;11962;50.838;4.430;2022-11-25T14:26:07;13.35;;;3.22;;
23567;SDS011;11962;50.838;4.430;2022-11-25T14:28:46;20.30;;;3.90;;
23567;SDS011;11962;50.838;4.430;2022-11-25T14:31:22;12.77;;;3.20;;
23567;SDS011;11962;50.838;4.430;2022-11-25T14:33:57;11.00;;;3.03;;
23567;SDS011;11962;50.838;4.430;2022-11-25T14:36:31;14.98;;;3.10;;
23567;SDS011;11962;50.838;4.430;2022-11-25T14:39:04;17.20;;;3.35;;
23567;SDS011;11962;50.838;4.430;2022-11-25T14:41:37;20.27;;;3.63;;
23567;SDS011;11962;50.838;4.430;2022-11-25T14:44:17;15.93;;;3.00;;
23567;SDS011;11962;50.838;4.430;2022-11-25T14:46:50;15.77;;;3.22;;
23567;SDS011;11962;50.838;4.430;2022-11-25T14:49:40;15.43;;;4.10;;
23567;SDS011;11962;50.838;4.430;2022-11-25T14:52:13;13.18;;;2.83;;
23567;SDS011;11962;50.838;4.430;2022-11-25T14:54:45;19.83;;;3.28;;
23567;SDS011;11962;50.838;4.430;2022-11-25T14:57:11;18.55;;;3.35;;
23567;SDS011;11962;50.838;4.430;2022-11-25T14:59:39;21.73;;;3.65;;
23567;SDS011;11962;50.838;4.430;2022-11-25T15:02:05;13.20;;;3.08;;
23567;SDS011;11962;50.838;4.430;2022-11-25T15:04:31;18.27;;;4.13;;
23567;SDS011;11962;50.838;4.430;2022-11-25T15:07:13;16.73;;;3.30;;
23567;SDS011;11962;50.838;4.430;2022-11-25T15:12:13;15.20;;;2.90;;
23567;SDS011;11962;50.838;4.430;2022-11-25T15:14:42;19.02;;;3.30;;
23567;SDS011;11962;50.838;4.430;2022-11-25T15:17:30;18.50;;;2.90;;
23567;SDS011;11962;50.838;4.430;2022-11-25T15:20:02;21.02;;;3.80;;
23567;SDS011;11962;50.838;4.430;2022-11-25T15:22:36;16.35;;;3.10;;
23567;SDS011;11962;50.838;4.430;2022-11-25T15:25:06;16.75;;;3.72;;
23567;SDS011;11962;50.838;4.430;2022-11-25T15:27:42;17.73;;;3.70;;
23567;SDS011;11962;50.838;4.430;2022-11-25T15:30:22;21.00;;;3.75;;
23567;SDS011;11962;50.838;4.430;2022-11-25T15:32:49;17.98;;;3.97;;
23567;SDS011;11962;50.838;4.430;2022-11-25T15:35:17;16.92;;;3.63;;
23567;SDS011;11962;50.838;4.430;2022-11-25T15:37:48;19.55;;;3.95;;
23567;SDS011;11962;50.838;4.430;2022-11-25T15:43:04;13.73;;;3.50;;
23567;SDS011;11962;50.838;4.430;2022-11-25T15:46:06;21.60;;;3.53;;
23567;SDS011;11962;50.838;4.430;2022-11-25T15:48:36;16.92;;;4.40;;
23567;SDS011;11962;50.838;4.430;2022-11-25T15:51:09;18.85;;;4.38;;
23567;SDS011;11962;50.838;4.430;2022-11-25T15:53:44;15.43;;;3.67;;
23567;SDS011;11962;50.838;4.430;2022-11-25T15:56:11;22.05;;;4.22;;
23567;SDS011;11962;50.838;4.430;2022-11-25T15:58:43;24.08;;;4.32;;
23567;SDS011;11962;50.838;4.430;2022-11-25T16:06:35;24.13;;;4.28;;
23567;SDS011;11962;50.838;4.430;2022-11-25T16:09:02;16.65;;;3.90;;
23567;SDS011;11962;50.838;4.430;2022-11-25T16:11:43;20.45;;;4.80;;
23567;SDS011;11962;50.838;4.430;2022-11-25T16:17:00;20.45;;;4.32;;
23567;SDS011;11962;50.838;4.430;2022-11-25T16:19:39;23.42;;;4.72;;
23567;SDS011;11962;50.838;4.430;2022-11-25T16:22:16;18.02;;;4.13;;
23567;SDS011;11962;50.838;4.430;2022-11-25T16:24:51;20.17;;;3.90;;
23567;SDS011;11962;50.838;4.430;2022-11-25T16:27:22;15.15;;;4.10;;
23567;SDS011;11962;50.838;4.430;2022-11-25T16:32:21;22.15;;;4.88;;
23567;SDS011;11962;50.838;4.430;2022-11-25T16:34:54;19.25;;;3.83;;
23567;SDS011;11962;50.838;4.430;2022-11-25T16:37:21;19.23;;;4.57;;
23567;SDS011;11962;50.838;4.430;2022-11-25T16:39:48;20.00;;;4.40;;
23567;SDS011;11962;50.838;4.430;2022-11-25T16:42:18;22.65;;;4.88;;
23567;SDS011;11962;50.838;4.430;2022-11-25T16:44:46;17.10;;;4.90;;
23567;SDS011;11962;50.838;4.430;2022-11-25T16:47:14;18.70;;;5.00;;
23567;SDS011;11962;50.838;4.430;2022-11-25T16:53:02;19.42;;;5.32;;
23567;SDS011;11962;50.838;4.430;2022-11-25T16:55:29;18.30;;;4.80;;
23567;SDS011;11962;50.838;4.430;2022-11-25T16:57:54;12.98;;;4.00;;
23567;SDS011;11962;50.838;4.430;2022-11-25T17:00:20;21.52;;;4.47;;
23567;SDS011;11962;50.838;4.430;2022-11-25T17:02:46;22.02;;;4.75;;
23567;SDS011;11962;50.838;4.430;2022-11-25T17:05:26;20.35;;;5.22;;
23567;SDS011;11962;50.838;4.430;2022-11-25T17:07:54;25.17;;;5.38;;
23567;SDS011;11962;50.838;4.430;2022-11-25T17:10:20;24.10;;;5.60;;
23567;SDS011;11962;50.838;4.430;2022-11-25T17:12:46;16.95;;;5.05;;
23567;SDS011;11962;50.838;4.430;2022-11-25T17:15:14;27.17;;;5.53;;
23567;SDS011;11962;50.838;4.430;2022-11-25T17:17:43;26.77;;;5.85;;
23567;SDS011;11962;50.838;4.430;2022-11-25T17:20:15;24.27;;;4.95;;
23567;SDS011;11962;50.838;4.430;2022-11-25T17:22:42;23.27;;;5.07;;
23567;SDS011;11962;50.838;4.430;2022-11-25T17:25:10;17.73;;;4.60;;
23567;SDS011;11962;50.838;4.430;2022-11-25T17:27:36;26.60;;;5.57;;
23567;SDS011;11962;50.838;4.430;2022-11-25T17:30:04;30.52;;;6.28;;
23567;SDS011;11962;50.838;4.430;2022-11-25T17:32:35;20.08;;;5.22;;
23567;SDS011;11962;50.838;4.430;2022-11-25T17:35:14;20.63;;;5.40;;
23567;SDS011;11962;50.838;4.430;2022-11-25T17:37:50;29.35;;;6.70;;
23567;SDS011;11962;50.838;4.430;2022-11-25T17:40:16;16.48;;;5.38;;
23567;SDS011;11962;50.838;4.430;2022-11-25T17:42:43;20.25;;;5.95;;